createdAt,value
2022-11-12T00:00:10.571Z,29.75
2022-11-12T00:02:59.329Z,32.20
2022-11-12T00:05:46.864Z,27.35
2022-11-12T00:08:34.136Z,28.02
2022-11-12T00:11:21.438Z,25.92
2022-11-12T00:14:08.433Z,23.05
2022-11-12T00:16:55.935Z,30.38
2022-11-12T00:19:44.967Z,28.20
2022-11-12T00:22:32.420Z,28.35
2022-11-12T00:25:19.902Z,29.92
2022-11-12T00:28:08.741Z,30.67
2022-11-12T00:30:56.359Z,25.20
2022-11-12T00:33:44.008Z,28.30
2022-11-12T00:36:32.521Z,30.83
2022-11-12T00:39:20.143Z,30.67
2022-11-12T00:42:07.609Z,24.55
2022-11-12T00:44:54.779Z,28.77
2022-11-12T00:47:41.813Z,32.60
2022-11-12T00:50:29.228Z,27.70
2022-11-12T00:53:18.036Z,25.13
2022-11-12T00:56:06.640Z,24.45
2022-11-12T00:58:54.480Z,30.45
2022-11-12T01:01:42.303Z,28.83
2022-11-12T01:04:30.056Z,33.00
2022-11-12T01:07:17.487Z,34.20
2022-11-12T01:10:07.164Z,25.38
2022-11-12T01:12:54.886Z,34.40
2022-11-12T01:15:43.650Z,33.13
2022-11-12T01:18:30.990Z,24.40
2022-11-12T01:21:18.158Z,24.88
2022-11-12T01:24:06.203Z,25.10
2022-11-12T01:26:54.822Z,27.83
2022-11-12T01:29:42.233Z,27.00
2022-11-12T01:32:29.564Z,23.15
2022-11-12T01:35:17.226Z,27.95
2022-11-12T01:38:04.079Z,28.55
2022-11-12T01:40:51.240Z,26.42
2022-11-12T01:43:40.176Z,26.10
2022-11-12T01:46:29.759Z,24.38
2022-11-12T01:49:20.986Z,27.80
2022-11-12T01:52:14.029Z,24.13
2022-11-12T01:55:05.173Z,24.92
2022-11-12T01:57:56.085Z,24.67
2022-11-12T02:00:45.425Z,22.88
2022-11-12T02:03:33.246Z,22.95
2022-11-12T02:06:20.993Z,24.17
2022-11-12T02:09:08.143Z,25.45
2022-11-12T02:11:55.929Z,22.83
2022-11-12T02:14:42.336Z,26.75
2022-11-12T02:17:31.223Z,23.55
2022-11-12T02:20:19.119Z,27.45
2022-11-12T02:23:08.611Z,24.55
2022-11-12T02:25:56.005Z,28.40
2022-11-12T02:28:43.425Z,21.25
2022-11-12T02:31:30.851Z,23.85
2022-11-12T02:34:18.181Z,27.92
2022-11-12T02:37:05.234Z,22.80
2022-11-12T02:39:53.813Z,22.98
2022-11-12T02:42:41.357Z,23.55
2022-11-12T02:45:29.100Z,21.45
2022-11-12T02:48:19.149Z,24.42
2022-11-12T02:53:53.809Z,28.77
2022-11-12T02:56:43.235Z,23.65
2022-11-12T02:59:30.583Z,25.67
2022-11-12T03:02:17.928Z,20.05
2022-11-12T03:05:04.934Z,21.58
2022-11-12T03:07:52.352Z,19.77
2022-11-12T03:10:40.599Z,26.00
2022-11-12T03:13:29.426Z,29.00
2022-11-12T03:16:17.000Z,26.92
2022-11-12T03:19:04.394Z,25.98
2022-11-12T03:21:51.536Z,23.67
2022-11-12T03:24:38.626Z,26.50
2022-11-12T03:27:26.208Z,26.80
2022-11-12T03:30:14.884Z,24.73
2022-11-12T03:33:02.055Z,28.27
2022-11-12T03:35:49.487Z,29.45
2022-11-12T03:38:36.652Z,26.10
2022-11-12T03:41:23.792Z,28.08
2022-11-12T03:44:10.693Z,25.55
2022-11-12T03:46:59.459Z,23.50
2022-11-12T03:49:46.889Z,23.73
2022-11-12T03:52:34.237Z,24.08
2022-11-12T03:55:23.474Z,30.45
2022-11-12T03:58:10.899Z,24.73
2022-11-12T04:00:58.466Z,24.38
2022-11-12T04:03:47.773Z,26.48
2022-11-12T04:06:52.622Z,28.30
2022-11-12T04:09:40.035Z,28.48
2022-11-12T04:12:44.457Z,27.75
2022-11-12T04:15:32.038Z,26.52
2022-11-12T04:18:42.126Z,24.25
2022-11-12T04:21:50.754Z,26.00
2022-11-12T04:24:56.415Z,19.45
2022-11-12T04:27:43.483Z,32.17
2022-11-12T04:30:29.624Z,27.60
2022-11-12T04:33:16.637Z,29.05
2022-11-12T04:36:03.773Z,29.13
2022-11-12T04:38:52.390Z,29.48
2022-11-12T04:41:57.218Z,30.85
2022-11-12T04:45:02.814Z,28.40
2022-11-12T04:47:50.298Z,35.25
2022-11-12T04:50:38.036Z,33.42
2022-11-12T04:53:25.977Z,42.47
2022-11-12T04:56:14.151Z,33.42
2022-11-12T04:59:01.413Z,31.38
2022-11-12T05:01:48.733Z,35.78
2022-11-12T05:04:36.112Z,28.90
2022-11-12T05:07:23.701Z,35.30
2022-11-12T05:10:11.432Z,35.13
2022-11-12T05:13:00.384Z,40.67
2022-11-12T05:15:47.814Z,36.97
2022-11-12T05:18:34.831Z,32.53
2022-11-12T05:21:43.496Z,31.80
2022-11-12T05:24:41.679Z,30.95
2022-11-12T05:27:29.819Z,33.42
2022-11-12T05:30:18.552Z,36.35
2022-11-12T05:33:05.936Z,31.63
2022-11-12T05:35:52.914Z,30.38
2022-11-12T05:38:40.225Z,28.52
2022-11-12T05:41:32.840Z,36.55
2022-11-12T05:44:27.033Z,36.28
2022-11-12T05:47:15.763Z,37.22
2022-11-12T05:50:03.178Z,34.28
2022-11-12T05:52:50.722Z,36.70
2022-11-12T05:55:37.965Z,37.45
2022-11-12T05:58:25.212Z,37.28
2022-11-12T06:01:12.586Z,32.90
2022-11-12T06:04:01.261Z,32.05
2022-11-12T06:06:48.830Z,34.30
2022-11-12T06:09:36.278Z,36.17
2022-11-12T06:12:23.572Z,39.40
2022-11-12T06:15:11.217Z,36.05
2022-11-12T06:17:58.766Z,35.63
2022-11-12T06:21:07.470Z,39.40
2022-11-12T06:23:57.179Z,36.35
2022-11-12T06:26:44.860Z,39.55
2022-11-12T06:29:31.939Z,44.00
2022-11-12T06:32:19.179Z,44.17
2022-11-12T06:35:06.697Z,41.53
2022-11-12T06:37:57.038Z,41.88
2022-11-12T06:40:44.491Z,43.15
2022-11-12T06:43:33.268Z,44.65
2022-11-12T06:46:20.651Z,45.88
2022-11-12T06:49:08.033Z,44.47
2022-11-12T06:51:55.536Z,45.30
2022-11-12T06:54:44.087Z,47.13
2022-11-12T06:57:31.457Z,49.50
2022-11-12T07:00:19.838Z,48.60
2022-11-12T07:03:08.490Z,48.17
2022-11-12T07:05:56.067Z,50.20
2022-11-12T07:08:43.774Z,51.65
2022-11-12T07:11:32.868Z,52.65
2022-11-12T07:14:20.642Z,48.45
2022-11-12T07:17:08.045Z,50.00
2022-11-12T07:20:00.730Z,48.60
2022-11-12T07:22:50.728Z,47.03
2022-11-12T07:25:38.173Z,46.53
2022-11-12T07:28:27.208Z,47.92
2022-11-12T07:31:16.138Z,47.80
2022-11-12T07:34:03.739Z,50.85
2022-11-12T07:36:52.141Z,57.00
2022-11-12T07:39:39.589Z,49.65
2022-11-12T07:42:26.878Z,59.78
2022-11-12T07:45:15.386Z,52.10
2022-11-12T07:48:02.664Z,56.28
2022-11-12T07:50:49.929Z,62.42
2022-11-12T07:53:37.188Z,55.97
2022-11-12T07:56:26.063Z,52.38
2022-11-12T07:59:12.887Z,48.75
2022-11-12T08:02:01.718Z,46.50
2022-11-12T08:04:49.154Z,54.03
2022-11-12T08:07:36.630Z,56.53
2022-11-12T08:10:23.865Z,50.85
2022-11-12T08:13:11.667Z,52.92
2022-11-12T08:15:59.271Z,47.30
2022-11-12T08:18:48.661Z,61.53
2022-11-12T08:21:36.457Z,54.10
2022-11-12T08:24:23.789Z,52.42
2022-11-12T08:27:10.854Z,54.85
2022-11-12T08:29:58.016Z,48.83
2022-11-12T08:32:45.133Z,49.00
2022-11-12T08:35:34.697Z,50.70
2022-11-12T08:38:22.378Z,49.37
2022-11-12T08:41:10.960Z,48.42
2022-11-12T08:43:58.410Z,47.25
2022-11-12T08:46:45.895Z,51.97
2022-11-12T08:49:33.241Z,48.85
2022-11-12T08:52:21.756Z,45.10
2022-11-12T08:55:09.907Z,46.97
2022-11-12T08:57:59.383Z,51.95
2022-11-12T09:00:46.810Z,52.87
2022-11-12T09:03:34.167Z,51.92
2022-11-12T09:06:22.159Z,49.08
2022-11-12T09:09:11.352Z,50.42
2022-11-12T09:11:58.855Z,53.40
2022-11-12T09:14:46.400Z,50.47
2022-11-12T09:17:35.321Z,49.05
2022-11-12T09:20:22.760Z,53.70
2022-11-12T09:23:11.672Z,53.50
2022-11-12T09:26:00.183Z,54.90
2022-11-12T09:28:47.868Z,58.42
2022-11-12T09:31:35.560Z,54.58
2022-11-12T09:34:22.784Z,54.88
2022-11-12T09:37:09.981Z,56.90
2022-11-12T09:39:56.707Z,54.47
2022-11-12T09:42:46.798Z,54.45
2022-11-12T09:45:34.359Z,60.03
2022-11-12T09:48:25.896Z,58.10
2022-11-12T09:51:18.599Z,57.25
2022-11-12T09:54:13.665Z,52.67
2022-11-12T09:57:01.078Z,53.65
2022-11-12T09:59:49.739Z,51.65
2022-11-12T10:02:40.402Z,54.78
2022-11-12T10:05:30.790Z,50.92
2022-11-12T10:08:30.577Z,48.67
2022-11-12T10:12:10.258Z,52.33
2022-11-12T10:15:37.112Z,57.70
2022-11-12T10:18:34.024Z,49.13
2022-11-12T10:21:25.560Z,46.25
2022-11-12T10:24:13.126Z,47.90
2022-11-12T10:27:00.863Z,55.30
2022-11-12T10:29:52.247Z,48.63
2022-11-12T10:32:44.238Z,59.30
2022-11-12T10:35:31.103Z,50.15
2022-11-12T10:38:22.018Z,60.40
2022-11-12T10:41:20.789Z,45.83
2022-11-12T10:44:10.143Z,52.03
2022-11-12T10:47:17.538Z,52.42
2022-11-12T10:50:19.510Z,52.42
2022-11-12T10:53:08.575Z,49.70
2022-11-12T10:55:59.885Z,59.63
2022-11-12T10:58:47.062Z,53.28
2022-11-12T11:01:35.897Z,48.10
2022-11-12T11:04:31.424Z,51.28
2022-11-12T11:07:24.620Z,48.92
2022-11-12T11:10:24.467Z,47.33
2022-11-12T11:13:20.099Z,45.30
2022-11-12T11:16:09.018Z,52.20
2022-11-12T11:18:58.201Z,45.92
2022-11-12T11:21:59.968Z,49.38
2022-11-12T11:24:54.971Z,48.42
2022-11-12T11:27:50.684Z,47.03
2022-11-12T11:30:40.301Z,43.25
2022-11-12T11:33:35.743Z,50.60
2022-11-12T11:36:26.717Z,44.92
2022-11-12T11:39:20.989Z,39.55
2022-11-12T11:42:20.689Z,39.78
2022-11-12T11:45:13.547Z,41.28
2022-11-12T11:48:10.055Z,39.17
2022-11-12T11:51:01.447Z,42.22
2022-11-12T11:53:53.497Z,41.15
2022-11-12T11:56:43.992Z,35.97
2022-11-12T11:59:42.245Z,37.47
2022-11-12T12:02:50.842Z,40.58
2022-11-12T12:05:43.157Z,39.72
2022-11-12T12:08:37.914Z,36.10
2022-11-12T12:11:31.533Z,35.05
2022-11-12T12:14:27.534Z,38.58
2022-11-12T12:17:27.817Z,40.17
2022-11-12T12:20:22.158Z,36.47
2022-11-12T12:23:25.173Z,33.42
2022-11-12T12:26:16.078Z,36.60
2022-11-12T12:29:07.635Z,33.70
2022-11-12T12:31:59.623Z,33.55
2022-11-12T12:34:50.144Z,29.30
2022-11-12T12:37:40.256Z,36.05
2022-11-12T12:40:35.616Z,28.33
2022-11-12T12:43:28.595Z,26.50
2022-11-12T12:46:17.075Z,27.10
2022-11-12T12:49:05.604Z,26.38
2022-11-12T12:51:55.891Z,26.60
2022-11-12T12:54:59.611Z,28.60
2022-11-12T12:57:46.992Z,26.30
2022-11-12T13:00:36.830Z,30.85
2022-11-12T13:03:54.666Z,26.88
2022-11-12T13:06:54.899Z,32.67
2022-11-12T13:09:42.147Z,27.17
2022-11-12T13:13:02.297Z,27.15
2022-11-12T13:15:50.320Z,28.83
2022-11-12T13:18:59.675Z,31.52
2022-11-12T13:21:46.851Z,32.03
2022-11-12T13:25:04.440Z,31.63
2022-11-12T13:28:08.533Z,37.00
2022-11-12T13:31:02.603Z,35.47
2022-11-12T13:33:49.880Z,34.22
2022-11-12T13:36:37.029Z,36.78
2022-11-12T13:39:24.563Z,33.90
2022-11-12T13:42:33.326Z,39.30
2022-11-12T13:45:23.624Z,37.60
2022-11-12T13:51:00.018Z,39.72
2022-11-12T13:53:47.002Z,42.22
2022-11-12T13:56:35.506Z,38.28
2022-11-12T13:59:25.122Z,36.35
2022-11-12T14:02:22.103Z,40.13
2022-11-12T14:05:15.784Z,41.88
2022-11-12T14:08:30.347Z,39.63
2022-11-12T14:11:36.652Z,41.17
2022-11-12T14:14:34.762Z,39.33
2022-11-12T14:17:27.954Z,44.83
2022-11-12T14:20:26.425Z,40.45
2022-11-12T14:23:17.666Z,42.38
2022-11-12T14:26:07.343Z,45.50
2022-11-12T14:28:57.651Z,52.03
2022-11-12T14:34:35.168Z,44.65
2022-11-12T14:37:37.318Z,42.85
2022-11-12T14:40:29.937Z,42.47
2022-11-12T14:43:34.883Z,41.78
2022-11-12T14:46:25.575Z,42.60
2022-11-12T14:49:20.117Z,38.53
2022-11-12T14:52:09.714Z,39.70
2022-11-12T14:54:59.853Z,43.88
2022-11-12T14:57:47.210Z,43.67
2022-11-12T15:00:44.694Z,42.70
2022-11-12T15:03:33.471Z,39.30
2022-11-12T15:06:30.380Z,45.45
2022-11-12T15:09:21.754Z,37.08
2022-11-12T15:12:11.283Z,41.60
2022-11-12T15:15:08.792Z,40.53
2022-11-12T15:17:59.987Z,42.08
2022-11-12T15:20:47.226Z,38.75
2022-11-12T15:23:35.674Z,44.40
2022-11-12T15:26:26.691Z,40.55
2022-11-12T15:29:20.346Z,43.75
2022-11-12T15:32:32.673Z,38.40
2022-11-12T15:35:39.353Z,41.17
2022-11-12T15:38:28.546Z,42.40
2022-11-12T15:41:25.208Z,39.88
2022-11-12T15:44:13.210Z,41.45
2022-11-12T15:47:00.610Z,44.70
2022-11-12T15:49:49.523Z,42.33
2022-11-12T15:52:36.302Z,45.67
2022-11-12T15:55:23.330Z,41.67
2022-11-12T15:58:16.457Z,39.60
2022-11-12T16:01:03.702Z,42.47
2022-11-12T16:03:50.706Z,40.20
2022-11-12T16:06:37.681Z,41.80
2022-11-12T16:09:24.707Z,39.58
2022-11-12T16:12:12.264Z,33.58
2022-11-12T16:15:01.437Z,35.53
2022-11-12T16:17:49.417Z,37.08
2022-11-12T16:20:37.026Z,33.90
2022-11-12T16:23:23.780Z,33.33
2022-11-12T16:26:13.447Z,41.65
2022-11-12T16:29:00.686Z,38.38
2022-11-12T16:31:48.707Z,39.72
2022-11-12T16:34:35.680Z,41.90
2022-11-12T16:37:22.520Z,37.17
2022-11-12T16:40:14.420Z,33.92
2022-11-12T16:43:01.467Z,32.60
2022-11-12T16:45:48.276Z,41.63
2022-11-12T16:48:38.176Z,39.05
2022-11-12T16:51:25.484Z,36.78
2022-11-12T16:54:12.483Z,35.53
2022-11-12T16:56:59.390Z,37.75
2022-11-12T16:59:46.430Z,43.08
2022-11-12T17:02:35.169Z,32.13
2022-11-12T17:05:26.599Z,35.03
2022-11-12T17:08:14.601Z,37.70
2022-11-12T17:11:07.281Z,40.28
2022-11-12T17:13:53.999Z,38.00
2022-11-12T17:16:40.718Z,38.35
2022-11-12T17:19:27.665Z,36.83
2022-11-12T17:22:16.108Z,33.13
2022-11-12T17:25:04.119Z,37.70
2022-11-12T17:27:51.742Z,32.55
2022-11-12T17:30:38.817Z,35.88
2022-11-12T17:33:26.210Z,35.15
2022-11-12T17:36:15.141Z,31.08
2022-11-12T17:39:03.749Z,35.60
2022-11-12T17:41:51.120Z,33.38
2022-11-12T17:44:38.277Z,35.53
2022-11-12T17:47:25.130Z,38.47
2022-11-12T17:50:11.658Z,35.28
2022-11-12T17:52:58.385Z,37.15
2022-11-12T17:55:46.492Z,35.78
2022-11-12T17:58:33.994Z,36.60
2022-11-12T18:01:22.719Z,37.47
2022-11-12T18:04:11.204Z,35.78
2022-11-12T18:06:58.326Z,41.40
2022-11-12T18:09:45.340Z,38.75
2022-11-12T18:12:33.740Z,43.42
2022-11-12T18:15:20.531Z,45.60
2022-11-12T18:18:07.765Z,47.88
2022-11-12T18:20:55.132Z,44.72
2022-11-12T18:23:44.030Z,45.38
2022-11-12T18:26:31.112Z,52.40
2022-11-12T18:29:19.557Z,50.95
2022-11-12T18:32:06.061Z,50.28
2022-11-12T18:34:52.970Z,51.95
2022-11-12T18:37:40.289Z,44.13
2022-11-12T18:40:27.525Z,55.03
2022-11-12T18:43:14.476Z,45.17
2022-11-12T18:46:02.599Z,48.45
2022-11-12T18:48:50.339Z,44.63
2022-11-12T18:51:37.901Z,44.90
2022-11-12T18:54:25.463Z,47.70
2022-11-12T18:57:12.471Z,51.72
2022-11-12T18:59:59.724Z,48.55
2022-11-12T19:02:48.224Z,52.33
2022-11-12T19:05:35.674Z,48.20
2022-11-12T19:08:22.881Z,51.67
2022-11-12T19:11:10.823Z,56.33
2022-11-12T19:13:57.981Z,54.72
2022-11-12T19:16:45.155Z,51.53
2022-11-12T19:19:33.650Z,56.17
2022-11-12T19:22:20.537Z,61.40
2022-11-12T19:25:08.320Z,73.38
2022-11-12T19:27:56.398Z,60.33
2022-11-12T19:30:43.599Z,60.50
2022-11-12T19:33:30.250Z,58.90
2022-11-12T19:36:20.661Z,63.78
2022-11-12T19:39:07.966Z,66.80
2022-11-12T19:41:55.136Z,66.03
2022-11-12T19:44:41.865Z,69.68
2022-11-12T19:47:28.581Z,75.05
2022-11-12T19:50:15.517Z,76.25
2022-11-12T19:53:03.286Z,77.90
2022-11-12T19:55:50.389Z,80.88
2022-11-12T19:58:37.670Z,76.15
2022-11-12T20:01:24.531Z,80.93
2022-11-12T20:04:11.974Z,79.85
2022-11-12T20:06:59.144Z,87.15
2022-11-12T20:09:47.705Z,84.95
2022-11-12T20:12:34.854Z,83.95
2022-11-12T20:15:22.120Z,93.82
2022-11-12T20:18:09.325Z,89.75
2022-11-12T20:20:57.963Z,89.63
2022-11-12T20:23:45.847Z,98.80
2022-11-12T20:26:34.224Z,88.88
2022-11-12T20:29:21.286Z,87.13
2022-11-12T20:32:07.740Z,86.97
2022-11-12T20:34:54.832Z,87.20
2022-11-12T20:37:41.704Z,82.60
2022-11-12T20:40:28.530Z,87.20
2022-11-12T20:43:17.833Z,95.20
2022-11-12T20:46:04.937Z,101.50
2022-11-12T20:48:54.020Z,87.30
2022-11-12T20:51:40.887Z,90.10
2022-11-12T20:54:27.515Z,81.82
2022-11-12T20:57:14.466Z,93.70
2022-11-12T21:00:02.987Z,96.15
2022-11-12T21:02:50.112Z,95.72
2022-11-12T21:05:37.380Z,103.78
2022-11-12T21:08:24.629Z,98.30
2022-11-12T21:11:13.554Z,105.80
2022-11-12T21:14:01.092Z,102.70
2022-11-12T21:16:49.591Z,100.90
2022-11-12T21:19:36.768Z,89.85
2022-11-12T21:22:23.903Z,95.30
2022-11-12T21:25:10.790Z,93.90
2022-11-12T21:27:59.003Z,89.95
2022-11-12T21:30:46.114Z,90.22
2022-11-12T21:33:35.034Z,83.65
2022-11-12T21:36:22.150Z,91.55
2022-11-12T21:39:12.055Z,89.63
2022-11-12T21:41:59.217Z,90.82
2022-11-12T21:44:46.539Z,94.97
2022-11-12T21:47:33.476Z,89.00
2022-11-12T21:50:21.958Z,88.25
2022-11-12T21:53:09.179Z,93.45
2022-11-12T21:56:02.540Z,89.47
2022-11-12T21:58:49.401Z,108.75
2022-11-12T22:01:36.745Z,104.53
2022-11-12T22:04:24.084Z,104.65
2022-11-12T22:07:12.510Z,98.25
2022-11-12T22:09:59.799Z,104.38
2022-11-12T22:13:12.048Z,107.05
2022-11-12T22:15:54.466Z,107.95
2022-11-12T22:18:41.628Z,98.82
2022-11-12T22:21:30.685Z,89.30
2022-11-12T22:24:21.527Z,96.85
2022-11-12T22:27:08.277Z,103.57
2022-11-12T22:29:55.828Z,96.65
2022-11-12T22:32:43.016Z,100.25
2022-11-12T22:35:30.177Z,90.60
2022-11-12T22:38:17.212Z,102.75
2022-11-12T22:41:07.229Z,99.88
2022-11-12T22:43:57.007Z,94.93
2022-11-12T22:46:44.055Z,103.95
2022-11-12T22:49:31.188Z,124.95
2022-11-12T22:52:18.158Z,112.32
2022-11-12T22:55:05.616Z,116.68
2022-11-12T22:57:53.714Z,101.78
2022-11-12T23:00:40.723Z,100.97
2022-11-12T23:03:27.745Z,107.70
2022-11-12T23:06:14.501Z,115.78
2022-11-12T23:09:01.958Z,109.60
2022-11-12T23:11:48.838Z,101.80
2022-11-12T23:14:37.055Z,116.35
2022-11-12T23:17:24.180Z,111.47
2022-11-12T23:20:11.591Z,111.05
2022-11-12T23:22:58.772Z,104.95
2022-11-12T23:25:45.642Z,111.68
2022-11-12T23:28:32.625Z,117.18
2022-11-12T23:31:22.930Z,103.72
2022-11-12T23:34:12.536Z,121.15
2022-11-12T23:36:59.692Z,111.38
2022-11-12T23:39:46.677Z,120.43
2022-11-12T23:42:33.786Z,113.10
2022-11-12T23:45:20.564Z,116.25
2022-11-12T23:48:08.820Z,119.30
2022-11-12T23:51:02.698Z,106.88
2022-11-12T23:53:50.110Z,128.40
2022-11-12T23:56:36.804Z,110.32
2022-11-12T23:59:23.563Z,101.22
